Airport View

Enter AWOS ICAO identifier for current METAR.

ex. KFNL

KEOE 290315Z AUTO 17003KT 10SM OVC011 21/20 A2994 RMK AO2

29 Sep 2020 03:21

Frequency: 124.275

Phone: 803-276-2419

Other Area AWOS: KLUX - KGRD - KFDW - KCAE

TAF AMD KCAE 290240Z 2903/2924 16005KT 4SM BR OVC006 FM290700 17004KT 1 1/2SM BR OVC004 FM291500 19007KT P6SM BKN015 FM291800 22008KT P6SM VCTS BKN035CB TEMPO 2918/2921 3SM SHRA OVC025 FM292200 25007KT P6SM -RA OVC030